Terminal Aerodrome Forecast
Issued by NWS Shreveport, LA

Home | Current Version | Previous Version | Text Only | Print | Product List | Glossary On
Versions: 1 2 3 4 5 6 7 8 9 10 11 12 13 14 15 16 17
602
FTUS44 KSHV 270844 AAB
TAFTYR
TAF AMD
KTYR 270844Z 2709/2806 17007KT P6SM OVC014
     FM271600 18010KT P6SM VCSH BKN025 OVC035
     FM272100 15008KT P6SM VCTS BKN025 OVC035CB
     FM280000 15009KT P6SM BKN035 OVC050=

USA.gov is the U.S. government's official web portal to all federal, state and local government web resources and services.